sensor_id;sensor_type;location;lat;lon;timestamp;temperature;humidity
20866;DHT22;10593;48.398;10.698;2022-10-16T00:01:26;18.10;62.80
20866;DHT22;10593;48.398;10.698;2022-10-16T00:03:54;18.10;63.50
20866;DHT22;10593;48.398;10.698;2022-10-16T00:06:21;18.00;62.90
20866;DHT22;10593;48.398;10.698;2022-10-16T00:08:48;18.00;62.90
20866;DHT22;10593;48.398;10.698;2022-10-16T00:11:20;18.00;63.00
20866;DHT22;10593;48.398;10.698;2022-10-16T00:14:00;18.00;63.10
20866;DHT22;10593;48.398;10.698;2022-10-16T00:16:27;18.00;63.10
20866;DHT22;10593;48.398;10.698;2022-10-16T00:18:54;18.00;63.20
20866;DHT22;10593;48.398;10.698;2022-10-16T00:21:25;17.90;63.10
20866;DHT22;10593;48.398;10.698;2022-10-16T00:23:54;18.00;63.30
20866;DHT22;10593;48.398;10.698;2022-10-16T00:26:22;18.00;63.50
20866;DHT22;10593;48.398;10.698;2022-10-16T00:28:49;18.00;63.40
20866;DHT22;10593;48.398;10.698;2022-10-16T00:31:17;17.90;63.40
20866;DHT22;10593;48.398;10.698;2022-10-16T00:33:45;17.90;63.40
20866;DHT22;10593;48.398;10.698;2022-10-16T00:36:14;17.90;63.30
20866;DHT22;10593;48.398;10.698;2022-10-16T00:38:42;17.90;63.30
20866;DHT22;10593;48.398;10.698;2022-10-16T00:41:12;17.90;63.30
20866;DHT22;10593;48.398;10.698;2022-10-16T00:43:45;17.90;63.40
20866;DHT22;10593;48.398;10.698;2022-10-16T00:49:05;17.80;63.30
20866;DHT22;10593;48.398;10.698;2022-10-16T00:51:40;17.90;63.30
20866;DHT22;10593;48.398;10.698;2022-10-16T00:54:14;17.90;63.20
20866;DHT22;10593;48.398;10.698;2022-10-16T00:56:53;17.80;62.90
20866;DHT22;10593;48.398;10.698;2022-10-16T00:59:29;17.80;62.80
20866;DHT22;10593;48.398;10.698;2022-10-16T01:01:58;17.80;62.80
20866;DHT22;10593;48.398;10.698;2022-10-16T01:04:25;17.80;62.70
20866;DHT22;10593;48.398;10.698;2022-10-16T01:07:18;17.80;62.70
20866;DHT22;10593;48.398;10.698;2022-10-16T01:13:15;17.80;62.70
20866;DHT22;10593;48.398;10.698;2022-10-16T01:15:59;17.70;62.60
20866;DHT22;10593;48.398;10.698;2022-10-16T01:18:46;17.70;62.70
20866;DHT22;10593;48.398;10.698;2022-10-16T01:21:27;17.70;62.90
20866;DHT22;10593;48.398;10.698;2022-10-16T01:27:13;17.60;62.80
20866;DHT22;10593;48.398;10.698;2022-10-16T01:29:56;17.60;63.00
20866;DHT22;10593;48.398;10.698;2022-10-16T01:37:53;17.60;63.40
20866;DHT22;10593;48.398;10.698;2022-10-16T01:40:26;17.60;63.40
20866;DHT22;10593;48.398;10.698;2022-10-16T01:43:08;17.60;63.40
20866;DHT22;10593;48.398;10.698;2022-10-16T01:45:38;17.60;63.30
20866;DHT22;10593;48.398;10.698;2022-10-16T01:48:07;17.60;63.20
20866;DHT22;10593;48.398;10.698;2022-10-16T01:50:38;17.60;63.10
20866;DHT22;10593;48.398;10.698;2022-10-16T01:53:10;17.50;62.80
20866;DHT22;10593;48.398;10.698;2022-10-16T01:55:42;17.60;62.90
20866;DHT22;10593;48.398;10.698;2022-10-16T01:58:12;17.50;62.60
20866;DHT22;10593;48.398;10.698;2022-10-16T02:00:42;17.50;62.40
20866;DHT22;10593;48.398;10.698;2022-10-16T02:03:13;17.50;62.50
20866;DHT22;10593;48.398;10.698;2022-10-16T02:05:45;17.50;62.50
20866;DHT22;10593;48.398;10.698;2022-10-16T02:08:17;17.50;62.60
20866;DHT22;10593;48.398;10.698;2022-10-16T02:10:43;17.40;62.50
20866;DHT22;10593;48.398;10.698;2022-10-16T02:15:59;17.50;62.80
20866;DHT22;10593;48.398;10.698;2022-10-16T02:18:26;17.40;62.60
20866;DHT22;10593;48.398;10.698;2022-10-16T02:21:11;17.40;62.60
20866;DHT22;10593;48.398;10.698;2022-10-16T02:27:03;17.40;62.50
20866;DHT22;10593;48.398;10.698;2022-10-16T02:29:59;17.40;62.40
20866;DHT22;10593;48.398;10.698;2022-10-16T02:32:34;17.40;62.40
20866;DHT22;10593;48.398;10.698;2022-10-16T02:35:02;17.40;62.60
20866;DHT22;10593;48.398;10.698;2022-10-16T02:37:29;17.30;62.50
20866;DHT22;10593;48.398;10.698;2022-10-16T02:39:57;17.30;62.70
20866;DHT22;10593;48.398;10.698;2022-10-16T02:42:29;17.30;62.80
20866;DHT22;10593;48.398;10.698;2022-10-16T02:44:58;17.30;62.90
20866;DHT22;10593;48.398;10.698;2022-10-16T02:47:24;17.30;62.90
20866;DHT22;10593;48.398;10.698;2022-10-16T02:49:50;17.30;63.20
20866;DHT22;10593;48.398;10.698;2022-10-16T02:52:15;17.30;63.40
20866;DHT22;10593;48.398;10.698;2022-10-16T02:54:41;17.20;63.40
20866;DHT22;10593;48.398;10.698;2022-10-16T02:57:07;17.30;63.50
20866;DHT22;10593;48.398;10.698;2022-10-16T02:59:32;17.30;63.50
20866;DHT22;10593;48.398;10.698;2022-10-16T03:01:58;17.20;63.50
20866;DHT22;10593;48.398;10.698;2022-10-16T03:04:24;17.30;63.70
20866;DHT22;10593;48.398;10.698;2022-10-16T03:06:49;17.30;63.60
20866;DHT22;10593;48.398;10.698;2022-10-16T03:09:15;17.30;63.60
20866;DHT22;10593;48.398;10.698;2022-10-16T03:11:41;17.30;63.60
20866;DHT22;10593;48.398;10.698;2022-10-16T03:14:06;17.30;63.60
20866;DHT22;10593;48.398;10.698;2022-10-16T03:16:32;17.20;63.50
20866;DHT22;10593;48.398;10.698;2022-10-16T03:18:58;17.20;63.50
20866;DHT22;10593;48.398;10.698;2022-10-16T03:21:24;17.30;63.50
20866;DHT22;10593;48.398;10.698;2022-10-16T03:23:50;17.30;63.50
20866;DHT22;10593;48.398;10.698;2022-10-16T03:26:15;17.30;63.50
20866;DHT22;10593;48.398;10.698;2022-10-16T03:28:41;17.30;63.50
20866;DHT22;10593;48.398;10.698;2022-10-16T03:31:07;17.30;63.50
20866;DHT22;10593;48.398;10.698;2022-10-16T03:33:33;17.20;63.40
20866;DHT22;10593;48.398;10.698;2022-10-16T03:35:59;17.20;63.50
20866;DHT22;10593;48.398;10.698;2022-10-16T03:38:25;17.20;63.40
20866;DHT22;10593;48.398;10.698;2022-10-16T03:40:51;17.20;63.40
20866;DHT22;10593;48.398;10.698;2022-10-16T03:43:16;17.20;63.40
20866;DHT22;10593;48.398;10.698;2022-10-16T03:45:42;17.20;63.50
20866;DHT22;10593;48.398;10.698;2022-10-16T03:48:10;17.20;63.60
20866;DHT22;10593;48.398;10.698;2022-10-16T03:50:36;17.20;63.80
20866;DHT22;10593;48.398;10.698;2022-10-16T03:53:02;17.20;63.90
20866;DHT22;10593;48.398;10.698;2022-10-16T03:55:28;17.20;64.10
20866;DHT22;10593;48.398;10.698;2022-10-16T03:57:54;17.20;64.20
20866;DHT22;10593;48.398;10.698;2022-10-16T04:00:19;17.20;64.30
20866;DHT22;10593;48.398;10.698;2022-10-16T04:02:45;17.20;64.40
20866;DHT22;10593;48.398;10.698;2022-10-16T04:05:11;17.20;64.50
20866;DHT22;10593;48.398;10.698;2022-10-16T04:07:36;17.20;64.50
20866;DHT22;10593;48.398;10.698;2022-10-16T04:10:03;17.20;64.60
20866;DHT22;10593;48.398;10.698;2022-10-16T04:12:31;17.20;64.60
20866;DHT22;10593;48.398;10.698;2022-10-16T04:14:56;17.20;64.50
20866;DHT22;10593;48.398;10.698;2022-10-16T04:17:22;17.20;64.50
20866;DHT22;10593;48.398;10.698;2022-10-16T04:19:48;17.20;64.40
20866;DHT22;10593;48.398;10.698;2022-10-16T04:22:13;17.20;64.30
20866;DHT22;10593;48.398;10.698;2022-10-16T04:24:39;17.20;64.20
20866;DHT22;10593;48.398;10.698;2022-10-16T04:27:05;17.20;64.20
20866;DHT22;10593;48.398;10.698;2022-10-16T04:29:31;17.10;64.10
20866;DHT22;10593;48.398;10.698;2022-10-16T04:31:56;17.10;64.20
20866;DHT22;10593;48.398;10.698;2022-10-16T04:34:22;17.10;64.30
20866;DHT22;10593;48.398;10.698;2022-10-16T04:36:48;17.10;64.40
20866;DHT22;10593;48.398;10.698;2022-10-16T04:39:15;17.10;64.50
20866;DHT22;10593;48.398;10.698;2022-10-16T04:41:41;17.10;64.60
20866;DHT22;10593;48.398;10.698;2022-10-16T04:44:06;17.10;64.60
20866;DHT22;10593;48.398;10.698;2022-10-16T04:46:32;17.10;64.60
20866;DHT22;10593;48.398;10.698;2022-10-16T04:48:58;17.10;64.60
20866;DHT22;10593;48.398;10.698;2022-10-16T04:51:24;17.10;64.60
20866;DHT22;10593;48.398;10.698;2022-10-16T04:53:51;17.10;64.60
20866;DHT22;10593;48.398;10.698;2022-10-16T04:56:17;17.10;64.60
20866;DHT22;10593;48.398;10.698;2022-10-16T04:58:44;17.10;64.60
20866;DHT22;10593;48.398;10.698;2022-10-16T05:01:09;17.10;64.60
20866;DHT22;10593;48.398;10.698;2022-10-16T05:03:35;17.10;64.60
20866;DHT22;10593;48.398;10.698;2022-10-16T05:06:00;17.10;65.20
20866;DHT22;10593;48.398;10.698;2022-10-16T05:08:26;17.00;64.40
20866;DHT22;10593;48.398;10.698;2022-10-16T05:10:52;17.10;64.50
20866;DHT22;10593;48.398;10.698;2022-10-16T05:13:17;17.00;64.30
20866;DHT22;10593;48.398;10.698;2022-10-16T05:15:47;17.00;64.20
20866;DHT22;10593;48.398;10.698;2022-10-16T05:18:13;17.00;64.30
20866;DHT22;10593;48.398;10.698;2022-10-16T05:20:39;17.00;64.30
20866;DHT22;10593;48.398;10.698;2022-10-16T05:23:05;17.00;64.20
20866;DHT22;10593;48.398;10.698;2022-10-16T05:25:30;17.00;64.20
20866;DHT22;10593;48.398;10.698;2022-10-16T05:27:56;17.00;64.00
20866;DHT22;10593;48.398;10.698;2022-10-16T05:30:22;17.00;64.00
20866;DHT22;10593;48.398;10.698;2022-10-16T05:32:49;17.00;64.00
20866;DHT22;10593;48.398;10.698;2022-10-16T05:35:16;16.90;63.90
20866;DHT22;10593;48.398;10.698;2022-10-16T05:37:43;16.90;64.00
20866;DHT22;10593;48.398;10.698;2022-10-16T05:40:09;16.90;64.00
20866;DHT22;10593;48.398;10.698;2022-10-16T05:42:35;16.90;64.10
20866;DHT22;10593;48.398;10.698;2022-10-16T05:45:03;16.90;64.10
20866;DHT22;10593;48.398;10.698;2022-10-16T05:47:30;16.90;64.10
20866;DHT22;10593;48.398;10.698;2022-10-16T05:49:56;16.90;64.10
20866;DHT22;10593;48.398;10.698;2022-10-16T05:52:21;16.90;64.70
20866;DHT22;10593;48.398;10.698;2022-10-16T05:54:47;16.90;64.00
20866;DHT22;10593;48.398;10.698;2022-10-16T05:57:12;16.80;63.90
20866;DHT22;10593;48.398;10.698;2022-10-16T05:59:38;16.80;63.90
20866;DHT22;10593;48.398;10.698;2022-10-16T06:02:04;16.80;63.80
20866;DHT22;10593;48.398;10.698;2022-10-16T06:04:29;16.80;63.80
20866;DHT22;10593;48.398;10.698;2022-10-16T06:06:58;16.80;64.00
20866;DHT22;10593;48.398;10.698;2022-10-16T06:09:26;16.80;64.10
20866;DHT22;10593;48.398;10.698;2022-10-16T06:11:51;16.80;64.30
20866;DHT22;10593;48.398;10.698;2022-10-16T06:14:17;16.90;65.00
20866;DHT22;10593;48.398;10.698;2022-10-16T06:16:42;17.00;65.80
20866;DHT22;10593;48.398;10.698;2022-10-16T06:19:08;17.10;66.20
20866;DHT22;10593;48.398;10.698;2022-10-16T06:21:34;17.30;66.70
20866;DHT22;10593;48.398;10.698;2022-10-16T06:24:01;17.40;66.80
20866;DHT22;10593;48.398;10.698;2022-10-16T06:26:29;17.70;66.60
20866;DHT22;10593;48.398;10.698;2022-10-16T06:28:57;17.90;66.20
20866;DHT22;10593;48.398;10.698;2022-10-16T06:31:23;18.20;66.10
20866;DHT22;10593;48.398;10.698;2022-10-16T06:33:53;18.60;65.90
20866;DHT22;10593;48.398;10.698;2022-10-16T06:36:20;18.90;65.30
20866;DHT22;10593;48.398;10.698;2022-10-16T06:38:46;19.20;64.70
20866;DHT22;10593;48.398;10.698;2022-10-16T06:41:18;19.50;64.00
20866;DHT22;10593;48.398;10.698;2022-10-16T06:43:46;19.80;62.80
20866;DHT22;10593;48.398;10.698;2022-10-16T06:46:15;20.20;62.70
20866;DHT22;10593;48.398;10.698;2022-10-16T06:48:42;20.50;61.50
20866;DHT22;10593;48.398;10.698;2022-10-16T06:51:19;20.70;60.30
20866;DHT22;10593;48.398;10.698;2022-10-16T06:53:48;20.80;58.80
20866;DHT22;10593;48.398;10.698;2022-10-16T06:58:44;20.90;58.70
20866;DHT22;10593;48.398;10.698;2022-10-16T07:01:11;21.10;59.30
20866;DHT22;10593;48.398;10.698;2022-10-16T07:03:39;21.20;59.40
20866;DHT22;10593;48.398;10.698;2022-10-16T07:06:08;21.50;59.70
20866;DHT22;10593;48.398;10.698;2022-10-16T07:08:37;21.80;59.10
20866;DHT22;10593;48.398;10.698;2022-10-16T07:11:08;22.00;58.70
20866;DHT22;10593;48.398;10.698;2022-10-16T07:13:39;22.30;58.20
20866;DHT22;10593;48.398;10.698;2022-10-16T07:16:10;22.50;57.10
20866;DHT22;10593;48.398;10.698;2022-10-16T07:18:37;22.70;56.30
20866;DHT22;10593;48.398;10.698;2022-10-16T07:21:11;22.80;55.30
20866;DHT22;10593;48.398;10.698;2022-10-16T07:23:39;22.90;54.90
20866;DHT22;10593;48.398;10.698;2022-10-16T07:26:05;22.80;54.50
20866;DHT22;10593;48.398;10.698;2022-10-16T07:28:32;22.70;54.00
20866;DHT22;10593;48.398;10.698;2022-10-16T07:31:06;22.60;54.00
20866;DHT22;10593;48.398;10.698;2022-10-16T07:33:34;22.40;54.20
20866;DHT22;10593;48.398;10.698;2022-10-16T07:36:00;22.30;53.90
20866;DHT22;10593;48.398;10.698;2022-10-16T07:38:26;22.20;54.20
20866;DHT22;10593;48.398;10.698;2022-10-16T07:40:59;22.00;54.60
20866;DHT22;10593;48.398;10.698;2022-10-16T07:43:27;21.80;54.40
20866;DHT22;10593;48.398;10.698;2022-10-16T07:45:54;21.60;54.90
20866;DHT22;10593;48.398;10.698;2022-10-16T07:48:21;21.50;55.30
20866;DHT22;10593;48.398;10.698;2022-10-16T07:50:48;21.40;55.70
20866;DHT22;10593;48.398;10.698;2022-10-16T07:53:14;21.20;55.80
20866;DHT22;10593;48.398;10.698;2022-10-16T07:55:40;21.20;56.30
20866;DHT22;10593;48.398;10.698;2022-10-16T07:58:06;21.10;56.50
20866;DHT22;10593;48.398;10.698;2022-10-16T08:00:32;20.90;56.70
20866;DHT22;10593;48.398;10.698;2022-10-16T08:02:58;20.90;57.00
20866;DHT22;10593;48.398;10.698;2022-10-16T08:05:28;20.80;57.00
20866;DHT22;10593;48.398;10.698;2022-10-16T08:07:56;20.70;57.40
20866;DHT22;10593;48.398;10.698;2022-10-16T08:10:24;20.70;57.50
20866;DHT22;10593;48.398;10.698;2022-10-16T08:12:51;20.60;57.70
20866;DHT22;10593;48.398;10.698;2022-10-16T08:15:18;20.50;58.00
20866;DHT22;10593;48.398;10.698;2022-10-16T08:17:54;20.50;58.50
20866;DHT22;10593;48.398;10.698;2022-10-16T08:20:21;20.50;58.70
20866;DHT22;10593;48.398;10.698;2022-10-16T08:22:46;20.50;58.70
20866;DHT22;10593;48.398;10.698;2022-10-16T08:25:12;20.40;58.40
20866;DHT22;10593;48.398;10.698;2022-10-16T08:27:38;20.40;58.40
20866;DHT22;10593;48.398;10.698;2022-10-16T08:30:04;20.40;58.40
20866;DHT22;10593;48.398;10.698;2022-10-16T08:32:30;20.40;58.50
20866;DHT22;10593;48.398;10.698;2022-10-16T08:34:55;20.40;59.00
20866;DHT22;10593;48.398;10.698;2022-10-16T08:37:21;20.40;59.10
20866;DHT22;10593;48.398;10.698;2022-10-16T08:39:47;20.30;59.20
20866;DHT22;10593;48.398;10.698;2022-10-16T08:45:26;20.30;59.30
20866;DHT22;10593;48.398;10.698;2022-10-16T08:50:52;20.30;59.20
20866;DHT22;10593;48.398;10.698;2022-10-16T08:53:23;20.30;59.40
20866;DHT22;10593;48.398;10.698;2022-10-16T08:55:53;20.40;59.40
20866;DHT22;10593;48.398;10.698;2022-10-16T08:58:20;20.30;59.40
20866;DHT22;10593;48.398;10.698;2022-10-16T09:00:54;20.40;59.50
20866;DHT22;10593;48.398;10.698;2022-10-16T09:06:26;20.30;59.20
20866;DHT22;10593;48.398;10.698;2022-10-16T09:12:24;20.40;59.50
20866;DHT22;10593;48.398;10.698;2022-10-16T09:15:14;20.40;59.70
20866;DHT22;10593;48.398;10.698;2022-10-16T09:20:49;20.40;59.40
20866;DHT22;10593;48.398;10.698;2022-10-16T09:23:26;20.40;59.60
20866;DHT22;10593;48.398;10.698;2022-10-16T09:25:56;20.50;59.50
20866;DHT22;10593;48.398;10.698;2022-10-16T09:28:24;20.50;59.50
20866;DHT22;10593;48.398;10.698;2022-10-16T09:30:50;20.50;59.40
20866;DHT22;10593;48.398;10.698;2022-10-16T09:33:19;20.50;59.40
20866;DHT22;10593;48.398;10.698;2022-10-16T09:35:56;20.50;59.50
20866;DHT22;10593;48.398;10.698;2022-10-16T09:38:31;20.50;59.50
20866;DHT22;10593;48.398;10.698;2022-10-16T09:41:19;20.50;59.40
20866;DHT22;10593;48.398;10.698;2022-10-16T09:43:52;20.60;59.40
20866;DHT22;10593;48.398;10.698;2022-10-16T09:46:36;20.60;59.60
20866;DHT22;10593;48.398;10.698;2022-10-16T09:49:22;20.60;59.50
20866;DHT22;10593;48.398;10.698;2022-10-16T09:51:51;20.60;59.20
20866;DHT22;10593;48.398;10.698;2022-10-16T09:54:29;20.60;59.40
20866;DHT22;10593;48.398;10.698;2022-10-16T09:57:05;20.60;59.30
20866;DHT22;10593;48.398;10.698;2022-10-16T09:59:32;20.60;59.00
20866;DHT22;10593;48.398;10.698;2022-10-16T10:02:02;20.70;59.50
20866;DHT22;10593;48.398;10.698;2022-10-16T10:05:01;20.70;58.90
20866;DHT22;10593;48.398;10.698;2022-10-16T10:07:30;20.70;58.70
20866;DHT22;10593;48.398;10.698;2022-10-16T10:10:00;20.70;58.80
20866;DHT22;10593;48.398;10.698;2022-10-16T10:12:28;20.70;58.70
20866;DHT22;10593;48.398;10.698;2022-10-16T10:15:04;20.80;58.80
20866;DHT22;10593;48.398;10.698;2022-10-16T10:17:32;20.80;58.80
20866;DHT22;10593;48.398;10.698;2022-10-16T10:20:21;20.80;58.60
20866;DHT22;10593;48.398;10.698;2022-10-16T10:22:54;20.80;58.30
20866;DHT22;10593;48.398;10.698;2022-10-16T10:25:50;20.90;58.50
20866;DHT22;10593;48.398;10.698;2022-10-16T10:28:51;20.90;58.20
20866;DHT22;10593;48.398;10.698;2022-10-16T10:36:41;20.90;58.20
20866;DHT22;10593;48.398;10.698;2022-10-16T10:39:18;21.00;58.20
20866;DHT22;10593;48.398;10.698;2022-10-16T10:54:27;21.10;57.70
20866;DHT22;10593;48.398;10.698;2022-10-16T11:00:28;21.10;57.80
20866;DHT22;10593;48.398;10.698;2022-10-16T11:06:19;21.20;57.60
20866;DHT22;10593;48.398;10.698;2022-10-16T11:09:16;21.30;57.40
20866;DHT22;10593;48.398;10.698;2022-10-16T11:15:14;21.30;57.40
20866;DHT22;10593;48.398;10.698;2022-10-16T11:18:04;21.30;57.40
20866;DHT22;10593;48.398;10.698;2022-10-16T11:20:47;21.30;57.40
20866;DHT22;10593;48.398;10.698;2022-10-16T11:23:37;21.40;57.40
20866;DHT22;10593;48.398;10.698;2022-10-16T11:26:16;21.40;57.40
20866;DHT22;10593;48.398;10.698;2022-10-16T11:28:52;21.50;57.60
20866;DHT22;10593;48.398;10.698;2022-10-16T11:31:45;21.50;57.50
20866;DHT22;10593;48.398;10.698;2022-10-16T11:34:34;21.50;57.50
20866;DHT22;10593;48.398;10.698;2022-10-16T11:37:31;21.60;57.50
20866;DHT22;10593;48.398;10.698;2022-10-16T11:40:09;21.60;57.40
20866;DHT22;10593;48.398;10.698;2022-10-16T11:42:48;21.60;57.20
20866;DHT22;10593;48.398;10.698;2022-10-16T11:46:01;21.60;57.60
20866;DHT22;10593;48.398;10.698;2022-10-16T11:51:43;21.70;57.50
20866;DHT22;10593;48.398;10.698;2022-10-16T11:54:28;21.80;57.60
20866;DHT22;10593;48.398;10.698;2022-10-16T11:57:08;21.70;57.20
20866;DHT22;10593;48.398;10.698;2022-10-16T11:59:49;21.80;57.40
20866;DHT22;10593;48.398;10.698;2022-10-16T12:05:33;21.90;57.10
20866;DHT22;10593;48.398;10.698;2022-10-16T12:08:20;21.90;57.00
20866;DHT22;10593;48.398;10.698;2022-10-16T12:10:48;22.00;57.10
20866;DHT22;10593;48.398;10.698;2022-10-16T12:13:41;22.00;56.90
20866;DHT22;10593;48.398;10.698;2022-10-16T12:18:40;22.10;56.60
20866;DHT22;10593;48.398;10.698;2022-10-16T12:21:08;22.10;56.10
20866;DHT22;10593;48.398;10.698;2022-10-16T12:23:49;22.10;55.90
20866;DHT22;10593;48.398;10.698;2022-10-16T12:26:34;22.20;55.30
20866;DHT22;10593;48.398;10.698;2022-10-16T12:29:14;22.20;55.10
20866;DHT22;10593;48.398;10.698;2022-10-16T12:31:49;22.20;55.30
20866;DHT22;10593;48.398;10.698;2022-10-16T12:34:23;22.20;55.40
20866;DHT22;10593;48.398;10.698;2022-10-16T12:37:18;22.20;55.30
20866;DHT22;10593;48.398;10.698;2022-10-16T12:39:48;22.30;54.80
20866;DHT22;10593;48.398;10.698;2022-10-16T12:44:53;22.30;54.20
20866;DHT22;10593;48.398;10.698;2022-10-16T12:47:50;22.30;54.60
20866;DHT22;10593;48.398;10.698;2022-10-16T12:50:32;22.30;54.60
20866;DHT22;10593;48.398;10.698;2022-10-16T12:53:00;22.30;54.80
20866;DHT22;10593;48.398;10.698;2022-10-16T12:55:35;22.30;54.80
20866;DHT22;10593;48.398;10.698;2022-10-16T12:58:40;22.30;54.30
20866;DHT22;10593;48.398;10.698;2022-10-16T13:01:40;22.30;53.90
20866;DHT22;10593;48.398;10.698;2022-10-16T13:07:33;22.40;53.80
20866;DHT22;10593;48.398;10.698;2022-10-16T13:10:22;22.40;53.60
20866;DHT22;10593;48.398;10.698;2022-10-16T13:28:08;22.50;53.50
20866;DHT22;10593;48.398;10.698;2022-10-16T13:30:40;22.50;53.60
20866;DHT22;10593;48.398;10.698;2022-10-16T13:33:14;22.50;53.80
20866;DHT22;10593;48.398;10.698;2022-10-16T13:35:49;22.60;53.40
20866;DHT22;10593;48.398;10.698;2022-10-16T13:38:19;22.50;52.90
20866;DHT22;10593;48.398;10.698;2022-10-16T13:40:53;22.60;53.10
20866;DHT22;10593;48.398;10.698;2022-10-16T13:46:15;22.60;52.10
20866;DHT22;10593;48.398;10.698;2022-10-16T13:48:42;22.60;52.70
20866;DHT22;10593;48.398;10.698;2022-10-16T13:51:15;22.70;53.00
20866;DHT22;10593;48.398;10.698;2022-10-16T13:53:44;22.70;52.70
20866;DHT22;10593;48.398;10.698;2022-10-16T13:56:15;22.70;52.70
20866;DHT22;10593;48.398;10.698;2022-10-16T13:58:45;22.70;52.50
20866;DHT22;10593;48.398;10.698;2022-10-16T14:01:20;22.70;52.30
20866;DHT22;10593;48.398;10.698;2022-10-16T14:03:51;22.80;51.80
20866;DHT22;10593;48.398;10.698;2022-10-16T14:06:20;22.80;52.20
20866;DHT22;10593;48.398;10.698;2022-10-16T14:08:56;22.80;52.00
20866;DHT22;10593;48.398;10.698;2022-10-16T14:11:26;22.90;52.30
20866;DHT22;10593;48.398;10.698;2022-10-16T14:13:53;22.90;52.40
20866;DHT22;10593;48.398;10.698;2022-10-16T14:16:22;22.90;52.40
20866;DHT22;10593;48.398;10.698;2022-10-16T14:19:23;22.90;52.40
20866;DHT22;10593;48.398;10.698;2022-10-16T14:21:53;22.90;52.20
20866;DHT22;10593;48.398;10.698;2022-10-16T14:24:48;22.90;52.70
20866;DHT22;10593;48.398;10.698;2022-10-16T14:27:33;22.90;53.20
20866;DHT22;10593;48.398;10.698;2022-10-16T14:30:16;22.90;52.80
20866;DHT22;10593;48.398;10.698;2022-10-16T14:33:03;22.90;53.60
20866;DHT22;10593;48.398;10.698;2022-10-16T14:35:36;22.90;53.60
20866;DHT22;10593;48.398;10.698;2022-10-16T14:38:05;22.90;54.10
20866;DHT22;10593;48.398;10.698;2022-10-16T14:40:47;22.90;54.40
20866;DHT22;10593;48.398;10.698;2022-10-16T14:43:21;22.90;54.30
20866;DHT22;10593;48.398;10.698;2022-10-16T14:45:56;22.90;53.70
20866;DHT22;10593;48.398;10.698;2022-10-16T14:48:22;22.90;53.50
20866;DHT22;10593;48.398;10.698;2022-10-16T14:50:49;23.00;53.70
20866;DHT22;10593;48.398;10.698;2022-10-16T14:53:15;22.90;53.30
20866;DHT22;10593;48.398;10.698;2022-10-16T14:55:41;23.00;52.90
20866;DHT22;10593;48.398;10.698;2022-10-16T14:58:25;22.90;53.00
20866;DHT22;10593;48.398;10.698;2022-10-16T15:00:51;22.90;52.70
20866;DHT22;10593;48.398;10.698;2022-10-16T15:03:17;23.00;53.10
20866;DHT22;10593;48.398;10.698;2022-10-16T15:05:43;23.00;51.90
20866;DHT22;10593;48.398;10.698;2022-10-16T15:08:08;23.00;51.90
20866;DHT22;10593;48.398;10.698;2022-10-16T15:10:40;23.00;52.10
20866;DHT22;10593;48.398;10.698;2022-10-16T15:13:13;23.00;53.20
20866;DHT22;10593;48.398;10.698;2022-10-16T15:15:45;23.00;54.60
20866;DHT22;10593;48.398;10.698;2022-10-16T15:18:12;23.00;55.70
20866;DHT22;10593;48.398;10.698;2022-10-16T15:20:40;23.00;56.10
20866;DHT22;10593;48.398;10.698;2022-10-16T15:23:15;22.90;56.20
20866;DHT22;10593;48.398;10.698;2022-10-16T15:25:51;22.90;56.40
20866;DHT22;10593;48.398;10.698;2022-10-16T15:28:18;22.90;56.40
20866;DHT22;10593;48.398;10.698;2022-10-16T15:30:46;22.90;56.00
20866;DHT22;10593;48.398;10.698;2022-10-16T15:33:20;22.80;55.90
20866;DHT22;10593;48.398;10.698;2022-10-16T15:35:49;22.80;55.90
20866;DHT22;10593;48.398;10.698;2022-10-16T15:38:17;22.80;55.70
20866;DHT22;10593;48.398;10.698;2022-10-16T15:40:46;22.80;55.50
20866;DHT22;10593;48.398;10.698;2022-10-16T15:43:12;22.70;56.10
20866;DHT22;10593;48.398;10.698;2022-10-16T15:45:38;22.70;55.70
20866;DHT22;10593;48.398;10.698;2022-10-16T15:48:04;22.70;56.20
20866;DHT22;10593;48.398;10.698;2022-10-16T15:50:30;22.70;56.40
20866;DHT22;10593;48.398;10.698;2022-10-16T15:52:57;22.70;56.60
20866;DHT22;10593;48.398;10.698;2022-10-16T15:55:23;22.60;56.50
20866;DHT22;10593;48.398;10.698;2022-10-16T15:57:49;22.60;56.80
20866;DHT22;10593;48.398;10.698;2022-10-16T16:00:17;22.50;56.70
20866;DHT22;10593;48.398;10.698;2022-10-16T16:02:52;22.50;56.80
20866;DHT22;10593;48.398;10.698;2022-10-16T16:05:19;22.50;57.20
20866;DHT22;10593;48.398;10.698;2022-10-16T16:07:46;22.40;57.40
20866;DHT22;10593;48.398;10.698;2022-10-16T16:10:12;22.40;57.50
20866;DHT22;10593;48.398;10.698;2022-10-16T16:12:38;22.30;57.60
20866;DHT22;10593;48.398;10.698;2022-10-16T16:15:06;22.30;57.70
20866;DHT22;10593;48.398;10.698;2022-10-16T16:17:34;22.20;57.80
20866;DHT22;10593;48.398;10.698;2022-10-16T16:20:00;22.20;57.80
20866;DHT22;10593;48.398;10.698;2022-10-16T16:22:27;22.20;57.90
20866;DHT22;10593;48.398;10.698;2022-10-16T16:24:54;22.10;58.10
20866;DHT22;10593;48.398;10.698;2022-10-16T16:27:19;22.10;58.50
20866;DHT22;10593;48.398;10.698;2022-10-16T16:29:46;22.00;58.70
20866;DHT22;10593;48.398;10.698;2022-10-16T16:32:12;22.00;58.80
20866;DHT22;10593;48.398;10.698;2022-10-16T16:34:38;22.00;58.90
20866;DHT22;10593;48.398;10.698;2022-10-16T16:37:04;21.90;59.00
20866;DHT22;10593;48.398;10.698;2022-10-16T16:39:29;21.90;59.10
20866;DHT22;10593;48.398;10.698;2022-10-16T16:41:56;21.90;59.20
20866;DHT22;10593;48.398;10.698;2022-10-16T16:44:24;21.90;59.30
20866;DHT22;10593;48.398;10.698;2022-10-16T16:46:51;21.80;59.30
20866;DHT22;10593;48.398;10.698;2022-10-16T16:49:17;21.80;59.60
20866;DHT22;10593;48.398;10.698;2022-10-16T16:51:42;21.80;59.80
20866;DHT22;10593;48.398;10.698;2022-10-16T16:54:10;21.80;59.90
20866;DHT22;10593;48.398;10.698;2022-10-16T16:56:38;21.80;60.00
20866;DHT22;10593;48.398;10.698;2022-10-16T16:59:04;21.70;60.00
20866;DHT22;10593;48.398;10.698;2022-10-16T17:01:30;21.70;60.00
20866;DHT22;10593;48.398;10.698;2022-10-16T17:03:57;21.70;59.90
20866;DHT22;10593;48.398;10.698;2022-10-16T17:06:27;21.60;59.80
20866;DHT22;10593;48.398;10.698;2022-10-16T17:08:55;21.60;59.70
20866;DHT22;10593;48.398;10.698;2022-10-16T17:11:23;21.60;59.70
20866;DHT22;10593;48.398;10.698;2022-10-16T17:13:51;21.60;59.60
20866;DHT22;10593;48.398;10.698;2022-10-16T17:16:22;21.60;59.50
20866;DHT22;10593;48.398;10.698;2022-10-16T17:18:49;21.60;59.50